Time;durP1;ratioP1;P1;durP2;ratioP2;P2;SDS_P1;SDS_P2;PMS_P1;PMS_P2;Temp;Humidity;BMP_temperature;BMP_pressure;BME280_temperature;BME280_humidity;BME280_pressure;Samples;Min_cycle;Max_cycle;Signal;HPM_P1;HPM_P2
2022/04/01 08:04:35;;;;;;;5.22;2.50;;;2.50;94.50;;;;;;5063447;28;20391;-43
2022/04/01 08:07:07;;;;;;;8.98;3.30;;;2.50;94.00;;;;;;5055029;28;20113;-43
2022/04/01 08:09:35;;;;;;;9.75;2.97;;;2.60;94.10;;;;;;5060711;28;20037;-47
2022/04/01 08:12:02;;;;;;;12.27;3.95;;;2.70;93.90;;;;;;5052111;28;20038;-50
2022/04/01 08:14:29;;;;;;;7.22;2.55;;;2.80;93.40;;;;;;5060889;28;20054;-44
2022/04/01 08:16:56;;;;;;;7.38;2.20;;;2.90;93.10;;;;;;5069118;28;20086;-43
2022/04/01 08:19:23;;;;;;;9.50;2.40;;;3.00;92.50;;;;;;5058913;28;20040;-48
2022/04/01 08:21:50;;;;;;;12.98;4.28;;;3.10;92.70;;;;;;5050254;28;20045;-46
2022/04/01 08:24:16;;;;;;;16.20;3.58;;;3.20;92.80;;;;;;5050766;28;20056;-48
2022/04/01 08:26:43;;;;;;;7.90;3.08;;;3.30;92.80;;;;;;5056666;28;20507;-45
2022/04/01 08:29:10;;;;;;;9.95;3.00;;;3.30;92.80;;;;;;5064924;28;20040;-40
2022/04/01 08:31:37;;;;;;;5.70;2.03;;;3.40;92.80;;;;;;5068946;28;20043;-45
2022/04/01 08:34:04;;;;;;;8.80;2.22;;;3.30;92.40;;;;;;5069038;28;20041;-42
2022/04/01 08:36:31;;;;;;;7.30;2.33;;;3.20;92.20;;;;;;5068835;28;20037;-41
2022/04/01 08:38:57;;;;;;;5.22;2.20;;;3.10;92.60;;;;;;5065596;28;20106;-43
2022/04/01 08:41:24;;;;;;;10.05;3.35;;;3.20;92.70;;;;;;5059024;28;20120;-42
2022/04/01 08:43:51;;;;;;;13.80;3.42;;;3.30;93.00;;;;;;5050895;28;20041;-45
2022/04/01 08:46:18;;;;;;;5.80;2.35;;;3.30;91.90;;;;;;5049634;28;20099;-43
2022/04/01 08:48:45;;;;;;;7.68;2.05;;;3.30;91.10;;;;;;5049688;28;20124;-42
2022/04/01 08:51:13;;;;;;;12.20;3.60;;;3.50;91.40;;;;;;5049252;28;20033;-46
2022/04/01 08:53:41;;;;;;;7.28;2.30;;;3.60;91.30;;;;;;5057639;28;20037;-46
2022/04/01 08:56:08;;;;;;;6.85;1.75;;;3.70;90.70;;;;;;5068346;28;20099;-43
2022/04/01 08:58:35;;;;;;;7.90;2.20;;;3.80;90.20;;;;;;5068310;28;20048;-42
2022/04/01 09:01:02;;;;;;;7.20;1.65;;;3.90;89.60;;;;;;5066856;28;20415;-45
2022/04/01 09:03:28;;;;;;;6.10;1.80;;;3.90;89.40;;;;;;5068115;28;20068;-46
2022/04/01 09:06:01;;;;;;;7.90;2.28;;;4.00;89.30;;;;;;5068300;28;20127;-44
2022/04/01 09:08:27;;;;;;;2.95;1.30;;;4.10;89.00;;;;;;5067426;28;20116;-46
2022/04/01 09:10:54;;;;;;;9.20;1.92;;;4.10;87.20;;;;;;5067861;28;20060;-54
2022/04/01 09:13:21;;;;;;;7.47;2.00;;;4.10;87.10;;;;;;5066808;28;20060;-48
2022/04/01 09:15:48;;;;;;;8.27;1.40;;;4.20;88.00;;;;;;5056049;28;20037;-46
2022/04/01 09:18:15;;;;;;;5.82;1.90;;;4.30;86.50;;;;;;5053108;28;20047;-51
2022/04/01 09:20:42;;;;;;;3.42;1.67;;;4.40;87.90;;;;;;5035465;28;20512;-45
2022/04/01 09:23:08;;;;;;;6.78;1.75;;;4.50;87.20;;;;;;5050118;28;20037;-42
2022/04/01 09:25:35;;;;;;;10.40;1.70;;;4.70;85.80;;;;;;5054756;28;20041;-45
2022/04/01 09:28:02;;;;;;;4.07;1.45;;;4.80;85.10;;;;;;5040463;28;20041;-49
2022/04/01 09:30:29;;;;;;;9.38;1.50;;;4.80;83.60;;;;;;5035438;28;20040;-46
2022/04/01 09:32:57;;;;;;;6.32;1.00;;;4.70;82.40;;;;;;5035448;28;20448;-45
2022/04/01 09:35:24;;;;;;;6.82;1.50;;;4.70;83.20;;;;;;5035730;28;20053;-46
2022/04/01 09:37:51;;;;;;;4.30;1.30;;;4.80;81.60;;;;;;5034353;28;20045;-49
2022/04/01 09:40:19;;;;;;;7.07;1.40;;;4.90;81.00;;;;;;5035291;28;20046;-54
2022/04/01 09:42:46;;;;;;;6.93;1.55;;;5.00;80.60;;;;;;5035335;28;20045;-52
2022/04/01 09:45:13;;;;;;;3.35;1.15;;;5.10;80.90;;;;;;5034263;28;20044;-47
2022/04/01 09:47:40;;;;;;;6.95;1.48;;;5.10;78.80;;;;;;5035329;28;20129;-48
2022/04/01 09:50:06;;;;;;;4.70;1.20;;;5.20;79.10;;;;;;5042655;28;20043;-43
2022/04/01 09:52:36;;;;;;;7.60;1.50;;;5.20;78.90;;;;;;5054346;28;20045;-50
2022/04/01 09:55:03;;;;;;;3.97;1.15;;;5.30;79.00;;;;;;5054241;28;20484;-48
2022/04/01 09:57:29;;;;;;;12.15;2.03;;;5.30;76.70;;;;;;5054253;28;20099;-48
2022/04/01 09:59:56;;;;;;;8.15;1.58;;;5.30;77.20;;;;;;5054005;28;20045;-46
2022/04/01 10:02:23;;;;;;;6.00;1.25;;;5.30;78.00;;;;;;5052670;28;20049;-46
2022/04/01 10:04:50;;;;;;;8.07;1.38;;;5.50;78.10;;;;;;5052826;28;20052;-42
2022/04/01 10:07:16;;;;;;;4.18;1.40;;;5.60;77.70;;;;;;5052955;28;20050;-47
2022/04/01 10:09:43;;;;;;;6.43;1.67;;;5.50;76.20;;;;;;5052637;28;20041;-43
2022/04/01 10:12:28;;;;;;;5.93;1.55;;;5.30;75.80;;;;;;5052656;28;20387;-46
2022/04/01 10:14:55;;;;;;;4.53;1.27;;;5.30;75.70;;;;;;5054127;28;20124;-44
2022/04/01 10:17:23;;;;;;;6.70;1.25;;;5.50;75.90;;;;;;5053708;28;20496;-49
2022/04/01 10:19:50;;;;;;;6.40;1.55;;;5.70;75.50;;;;;;5054067;28;20052;-46
2022/04/01 10:22:17;;;;;;;5.15;1.42;;;5.90;74.80;;;;;;5054196;28;20041;-47
2022/04/01 10:24:44;;;;;;;6.25;1.40;;;5.90;74.30;;;;;;5053781;28;20041;-42
2022/04/01 10:27:11;;;;;;;9.43;2.17;;;5.90;75.10;;;;;;5052879;28;20072;-49
2022/04/01 10:29:38;;;;;;;9.50;1.80;;;5.80;75.20;;;;;;5050852;28;20580;-43
2022/04/01 10:32:04;;;;;;;5.82;1.40;;;5.70;73.30;;;;;;5051834;28;20056;-49
2022/04/01 10:34:31;;;;;;;5.70;1.05;;;5.60;75.30;;;;;;5051679;28;20049;-51
2022/04/01 10:37:01;;;;;;;7.97;1.30;;;5.20;80.90;;;;;;5051671;28;20190;-45
2022/04/01 10:39:28;;;;;;;5.07;1.20;;;4.90;81.40;;;;;;5051436;28;20454;-44
2022/04/01 10:41:55;;;;;;;7.30;1.55;;;4.90;81.00;;;;;;5051627;28;20060;-45
2022/04/01 10:44:22;;;;;;;5.50;1.23;;;5.10;81.70;;;;;;5052561;28;20041;-48
2022/04/01 10:47:08;;;;;;;3.22;0.90;;;5.20;80.00;;;;;;5053690;28;20033;-45
2022/04/01 10:52:23;;;;;;;7.30;1.38;;;5.40;81.00;;;;;;5053508;28;20053;-45
2022/04/01 10:54:50;;;;;;;5.07;1.08;;;5.50;79.60;;;;;;5053505;28;20045;-50
2022/04/01 10:57:17;;;;;;;6.18;1.52;;;5.50;76.90;;;;;;5053451;28;20488;-45
2022/04/01 10:59:44;;;;;;;7.43;1.50;;;5.60;78.50;;;;;;5052929;28;20055;-44
2022/04/01 11:02:11;;;;;;;9.75;1.58;;;5.60;75.60;;;;;;5052823;28;20065;-50
2022/04/01 11:04:38;;;;;;;6.28;1.52;;;5.70;75.60;;;;;;5052926;28;20040;-43
2022/04/01 11:07:05;;;;;;;4.43;1.20;;;5.80;75.60;;;;;;5045631;28;20477;-43
2022/04/01 11:09:32;;;;;;;5.28;1.10;;;5.90;76.90;;;;;;5052673;28;20041;-46
2022/04/01 11:11:58;;;;;;;4.93;1.60;;;6.10;75.30;;;;;;5052677;28;20037;-42
2022/04/01 11:14:25;;;;;;;5.07;1.13;;;6.30;73.00;;;;;;5051616;28;20048;-46
2022/04/01 11:16:52;;;;;;;6.68;1.38;;;6.50;68.40;;;;;;5033578;28;20064;-45
2022/04/01 11:19:19;;;;;;;5.47;1.30;;;6.60;69.50;;;;;;5034453;28;20112;-44
2022/04/01 11:21:46;;;;;;;8.68;1.50;;;6.80;68.40;;;;;;5033327;28;20041;-42
2022/04/01 11:24:13;;;;;;;4.47;1.33;;;7.10;64.70;;;;;;5033502;28;20056;-42
2022/04/01 11:26:44;;;;;;;7.80;1.20;;;7.20;62.20;;;;;;5034499;28;20112;-45
2022/04/01 11:29:10;;;;;;;5.63;1.20;;;7.30;59.10;;;;;;5033559;28;20400;-44
2022/04/01 11:31:38;;;;;;;5.03;1.23;;;7.40;60.20;;;;;;5033204;28;20144;-45
2022/04/01 11:34:07;;;;;;;7.70;1.13;;;7.50;59.40;;;;;;5032001;28;20118;-47
2022/04/01 11:36:34;;;;;;;6.97;1.10;;;7.50;59.40;;;;;;5032221;28;20057;-49
2022/04/01 11:39:00;;;;;;;4.88;1.10;;;7.60;50.90;;;;;;5050339;28;20047;-52
2022/04/01 11:41:32;;;;;;;3.22;0.85;;;7.70;48.00;;;;;;5034349;28;20064;-44
2022/04/01 11:43:59;;;;;;;5.43;0.82;;;7.70;45.50;;;;;;5036729;28;20095;-43
2022/04/01 11:46:26;;;;;;;4.10;1.05;;;7.70;43.90;;;;;;5040243;28;20053;-45
2022/04/01 11:48:53;;;;;;;5.35;1.10;;;7.90;45.50;;;;;;5033565;28;20037;-47
2022/04/01 11:51:19;;;;;;;6.38;0.90;;;8.10;45.90;;;;;;5032910;28;20551;-44
2022/04/01 11:53:48;;;;;;;4.75;0.93;;;8.10;47.80;;;;;;5033399;28;20460;-46
2022/04/01 11:56:15;;;;;;;4.35;0.88;;;8.10;51.50;;;;;;5037583;28;20055;-44
2022/04/01 11:58:42;;;;;;;6.72;1.50;;;8.00;52.20;;;;;;5032925;28;20045;-45
2022/04/01 12:01:09;;;;;;;6.05;1.35;;;7.90;52.60;;;;;;5032816;28;20080;-44
2022/04/01 12:03:36;;;;;;;5.38;1.00;;;7.80;51.50;;;;;;5032592;28;20128;-44
2022/04/01 12:08:49;;;;;;;6.40;0.88;;;7.50;50.90;;;;;;5046071;28;20048;-48
2022/04/01 12:11:16;;;;;;;3.10;1.00;;;7.60;51.90;;;;;;5051877;28;20045;-45
2022/04/01 12:13:43;;;;;;;3.92;1.10;;;7.60;50.80;;;;;;5051934;28;20052;-47
2022/04/01 12:16:09;;;;;;;5.10;1.00;;;7.70;51.10;;;;;;5052014;28;20069;-46
2022/04/01 12:18:37;;;;;;;5.97;0.95;;;7.80;51.70;;;;;;5051692;28;20052;-46
2022/04/01 12:21:03;;;;;;;7.57;1.42;;;7.70;53.20;;;;;;5051691;28;20072;-49
2022/04/01 12:23:33;;;;;;;4.05;0.80;;;7.50;55.10;;;;;;5051494;28;20041;-43
2022/04/01 12:26:00;;;;;;;5.72;0.98;;;7.30;57.60;;;;;;5051706;28;20417;-47
2022/04/01 12:28:27;;;;;;;3.08;1.08;;;7.20;61.00;;;;;;5051758;28;20037;-48
2022/04/01 12:30:54;;;;;;;4.00;0.98;;;7.10;59.90;;;;;;5051535;28;20044;-51
2022/04/01 12:33:21;;;;;;;2.42;0.85;;;7.10;60.50;;;;;;5051501;28;20041;-48
2022/04/01 12:35:51;;;;;;;6.95;1.00;;;7.10;59.50;;;;;;5051651;28;20099;-50
2022/04/01 12:38:18;;;;;;;3.38;0.68;;;7.20;57.20;;;;;;5051494;28;20049;-46
2022/04/01 12:40:45;;;;;;;5.15;1.10;;;7.10;56.00;;;;;;5051751;28;20052;-42
2022/04/01 12:43:11;;;;;;;3.78;0.85;;;7.20;58.10;;;;;;5042979;28;20096;-49
2022/04/01 12:45:38;;;;;;;3.22;0.80;;;7.20;55.30;;;;;;5032482;28;20045;-41
2022/04/01 12:48:05;;;;;;;5.20;1.00;;;7.30;54.50;;;;;;5032449;28;20120;-46
2022/04/01 12:50:32;;;;;;;4.03;0.75;;;7.40;55.60;;;;;;5034654;28;20463;-48
2022/04/01 12:52:58;;;;;;;4.70;1.00;;;7.60;55.40;;;;;;5035930;28;20045;-43
2022/04/01 12:55:25;;;;;;;3.63;0.95;;;7.60;57.30;;;;;;5036329;28;20080;-45
2022/04/01 12:57:52;;;;;;;10.55;1.10;;;7.50;60.00;;;;;;5036378;28;20484;-48
2022/04/01 13:00:19;;;;;;;5.75;1.02;;;7.40;61.00;;;;;;5035998;28;20461;-46
2022/04/01 13:02:45;;;;;;;5.65;0.90;;;7.30;66.10;;;;;;5035698;28;20084;-45
2022/04/01 13:05:12;;;;;;;4.78;0.70;;;7.10;69.60;;;;;;5035868;28;20049;-43
2022/04/01 13:07:39;;;;;;;8.63;1.30;;;6.50;76.10;;;;;;5040304;28;20071;-48
2022/04/01 13:10:06;;;;;;;6.47;1.10;;;6.30;78.70;;;;;;5055099;28;20041;-43
2022/04/01 13:12:34;;;;;;;3.20;0.80;;;6.40;79.00;;;;;;5055075;28;20091;-45
2022/04/01 13:15:01;;;;;;;3.53;0.85;;;6.60;76.80;;;;;;5054710;28;20199;-46
2022/04/01 13:17:28;;;;;;;8.80;1.73;;;6.80;77.10;;;;;;5055192;28;20045;-45
2022/04/01 13:19:55;;;;;;;6.05;1.20;;;6.90;75.30;;;;;;5054879;28;20470;-45
2022/04/01 13:22:21;;;;;;;5.22;1.42;;;6.90;74.10;;;;;;5053449;28;20477;-44
2022/04/01 13:24:48;;;;;;;5.20;0.85;;;6.90;74.20;;;;;;5054651;28;20065;-47
2022/04/01 13:27:20;;;;;;;8.75;1.23;;;6.60;73.00;;;;;;5054996;28;20048;-53
2022/04/01 13:29:47;;;;;;;4.82;1.10;;;6.50;74.40;;;;;;5052192;28;20178;-43
2022/04/01 13:32:14;;;;;;;4.15;0.80;;;6.40;74.60;;;;;;5034206;28;20140;-46
2022/04/01 13:34:45;;;;;;;6.28;0.90;;;6.30;69.70;;;;;;5041833;28;20041;-44
2022/04/01 13:37:12;;;;;;;3.78;0.90;;;6.20;69.30;;;;;;5036430;28;20049;-44
2022/04/01 13:39:39;;;;;;;4.05;1.00;;;6.30;71.00;;;;;;5054547;28;20128;-47
2022/04/01 13:42:06;;;;;;;4.13;0.90;;;6.50;68.30;;;;;;5054464;28;20504;-44
2022/04/01 13:44:32;;;;;;;4.15;1.05;;;6.60;68.10;;;;;;5052796;28;20560;-42
2022/04/01 13:46:59;;;;;;;3.13;0.85;;;6.60;67.60;;;;;;5051666;28;20107;-47
2022/04/01 13:49:26;;;;;;;7.03;1.38;;;6.70;68.10;;;;;;5035140;28;20045;-43
2022/04/01 13:51:53;;;;;;;7.93;1.38;;;6.70;71.10;;;;;;5035322;28;20495;-45
2022/04/01 13:54:19;;;;;;;5.78;1.70;;;6.80;69.20;;;;;;5037317;28;20413;-42
2022/04/01 13:56:46;;;;;;;3.97;1.35;;;7.10;70.90;;;;;;5050683;28;20072;-45
2022/04/01 13:59:13;;;;;;;7.38;1.40;;;7.30;69.00;;;;;;5034840;28;20480;-41
2022/04/01 14:01:40;;;;;;;17.70;4.13;;;7.30;69.00;;;;;;5034702;28;20041;-41
2022/04/01 14:04:08;;;;;;;6.25;1.25;;;7.10;71.30;;;;;;5049677;28;20114;-41
2022/04/01 14:06:35;;;;;;;11.23;2.78;;;6.90;74.80;;;;;;5052874;28;20045;-48
2022/04/01 14:09:01;;;;;;;5.55;1.23;;;6.70;76.60;;;;;;5051491;28;20385;-41
2022/04/01 14:11:28;;;;;;;5.78;1.88;;;6.70;77.70;;;;;;5034844;28;20092;-44
2022/04/01 14:13:55;;;;;;;4.35;0.90;;;6.80;77.90;;;;;;5034681;28;20045;-47
2022/04/01 14:16:22;;;;;;;6.35;1.20;;;6.90;75.00;;;;;;5049440;28;20407;-48
2022/04/01 14:18:49;;;;;;;4.28;1.10;;;6.90;78.20;;;;;;5053955;28;20040;-47
2022/04/01 14:21:16;;;;;;;4.22;1.00;;;6.80;79.70;;;;;;5053114;28;20041;-49
2022/04/01 14:23:43;;;;;;;6.30;1.40;;;6.60;80.80;;;;;;5034855;28;20132;-48
2022/04/01 14:26:11;;;;;;;5.78;1.20;;;6.50;81.30;;;;;;5034382;28;20477;-49
2022/04/01 14:28:37;;;;;;;4.68;1.20;;;6.30;82.00;;;;;;5034632;28;20534;-43
2022/04/01 14:31:04;;;;;;;5.53;1.13;;;6.30;81.90;;;;;;5034343;28;20117;-46
2022/04/01 14:33:31;;;;;;;4.65;1.33;;;6.30;81.60;;;;;;5042284;28;20044;-42
2022/04/01 14:35:58;;;;;;;6.93;1.63;;;6.30;82.00;;;;;;5043251;28;20037;-47
2022/04/01 14:38:25;;;;;;;7.20;1.63;;;6.20;81.30;;;;;;5035511;28;20052;-48
2022/04/01 14:41:09;;;;;;;6.15;1.73;;;6.10;82.20;;;;;;5046621;28;20446;-47
2022/04/01 14:43:35;;;;;;;4.95;1.20;;;5.90;84.80;;;;;;5052509;28;20337;-47
2022/04/01 14:46:02;;;;;;;6.68;0.95;;;5.50;90.90;;;;;;5052974;28;20049;-45
2022/04/01 14:48:29;;;;;;;5.72;2.05;;;5.30;91.60;;;;;;5053009;28;20041;-47
2022/04/01 14:50:56;;;;;;;9.13;0.93;;;5.40;91.90;;;;;;5053065;28;20130;-47
2022/04/01 14:53:24;;;;;;;3.50;1.48;;;5.40;91.30;;;;;;5046299;28;20048;-50
2022/04/01 14:55:51;;;;;;;4.15;0.90;;;5.50;91.10;;;;;;5040188;28;20045;-50
2022/04/01 14:58:18;;;;;;;6.50;1.17;;;5.50;89.70;;;;;;5040394;28;20096;-52
2022/04/01 15:00:45;;;;;;;3.20;1.10;;;5.50;87.30;;;;;;5052613;28;20580;-53
2022/04/01 15:03:12;;;;;;;3.22;1.20;;;5.50;84.50;;;;;;5040575;28;20049;-41
2022/04/01 15:05:40;;;;;;;2.83;1.13;;;5.50;85.50;;;;;;5033776;28;20556;-42
2022/04/01 15:08:07;;;;;;;5.22;1.30;;;5.60;83.30;;;;;;5040181;28;20041;-44
2022/04/01 15:10:34;;;;;;;3.92;1.55;;;5.70;84.10;;;;;;5034210;28;20416;-42
2022/04/01 15:13:00;;;;;;;2.60;1.00;;;5.80;82.10;;;;;;5033178;28;20107;-41
2022/04/01 15:15:27;;;;;;;4.85;1.30;;;5.90;83.30;;;;;;5039080;28;20049;-52
2022/04/01 15:17:54;;;;;;;5.18;1.50;;;5.90;85.30;;;;;;5046425;28;20047;-47
2022/04/01 15:20:28;;;;;;;3.35;1.33;;;5.80;86.40;;;;;;5052585;28;20065;-50
2022/04/01 15:22:55;;;;;;;2.00;0.88;;;5.90;86.80;;;;;;5052549;28;20388;-52
2022/04/01 15:25:22;;;;;;;3.00;0.85;;;6.00;86.80;;;;;;5045990;28;20122;-47
2022/04/01 15:27:49;;;;;;;3.00;0.80;;;6.20;84.90;;;;;;5033233;28;20033;-50
2022/04/01 15:30:16;;;;;;;4.32;0.90;;;6.10;75.30;;;;;;5046243;28;20048;-53
2022/04/01 15:32:42;;;;;;;3.05;0.90;;;6.00;74.60;;;;;;5033287;28;20069;-47
2022/04/01 15:35:09;;;;;;;3.88;1.05;;;5.90;75.50;;;;;;5033107;28;20076;-50
2022/04/01 15:37:37;;;;;;;5.72;1.15;;;5.90;80.50;;;;;;5036079;28;20500;-49
2022/04/01 15:40:03;;;;;;;2.58;0.88;;;5.70;87.30;;;;;;5040162;28;20095;-44
2022/04/01 15:42:30;;;;;;;3.92;1.10;;;5.60;87.80;;;;;;5038965;28;20064;-46
2022/04/01 15:44:57;;;;;;;4.05;1.48;;;5.50;89.40;;;;;;5032522;28;20045;-50
2022/04/01 15:47:24;;;;;;;3.55;1.00;;;5.40;90.00;;;;;;5038605;28;20083;-47
2022/04/01 15:49:51;;;;;;;2.17;0.90;;;5.50;88.40;;;;;;5040152;28;20033;-46
2022/04/01 15:52:18;;;;;;;2.95;0.95;;;5.50;87.70;;;;;;5031835;28;20041;-47
2022/04/01 15:54:44;;;;;;;6.45;1.35;;;5.50;86.60;;;;;;5033184;28;20436;-53
2022/04/01 15:57:11;;;;;;;4.03;1.00;;;5.70;85.90;;;;;;5032912;28;20049;-48
2022/04/01 15:59:39;;;;;;;3.40;1.05;;;5.90;86.00;;;;;;5032891;28;20049;-48
2022/04/01 16:02:06;;;;;;;2.08;0.80;;;6.10;83.30;;;;;;5031692;28;20045;-50
2022/04/01 16:04:35;;;;;;;8.90;1.40;;;6.30;81.70;;;;;;5032576;28;20511;-50
2022/04/01 16:07:04;;;;;;;5.50;1.55;;;6.40;81.40;;;;;;5032971;28;20045;-48
2022/04/01 16:09:30;;;;;;;9.98;1.70;;;6.50;82.30;;;;;;5050425;28;20041;-51
2022/04/01 16:11:57;;;;;;;6.15;1.60;;;6.40;84.70;;;;;;5051969;28;20041;-55
2022/04/01 16:14:25;;;;;;;5.88;1.65;;;6.30;86.50;;;;;;5051925;28;20554;-53
2022/04/01 16:17:05;;;;;;;7.85;1.33;;;6.20;86.70;;;;;;5052021;28;20048;-41
2022/04/01 16:19:32;;;;;;;5.20;1.13;;;6.10;85.30;;;;;;5052104;28;20070;-41
2022/04/01 16:22:02;;;;;;;6.03;1.60;;;6.00;84.80;;;;;;5051892;28;20044;-41
2022/04/01 16:24:29;;;;;;;5.10;1.23;;;5.90;84.00;;;;;;5052442;28;20086;-40
2022/04/01 16:26:56;;;;;;;2.58;1.10;;;5.80;84.20;;;;;;5055036;28;20045;-40
2022/04/01 16:29:23;;;;;;;4.82;1.25;;;5.80;83.10;;;;;;5054179;28;20041;-40
2022/04/01 16:31:49;;;;;;;6.15;1.20;;;5.70;83.20;;;;;;5054309;28;20099;-43
2022/04/01 16:34:16;;;;;;;5.88;1.40;;;5.80;82.90;;;;;;5056155;28;20471;-43
2022/04/01 16:36:43;;;;;;;3.80;1.33;;;5.80;82.30;;;;;;5056059;28;20045;-41
2022/04/01 16:39:10;;;;;;;5.68;1.60;;;5.90;82.50;;;;;;5054757;28;20115;-45
2022/04/01 16:41:37;;;;;;;10.25;4.03;;;6.00;82.60;;;;;;5053811;28;20112;-40
2022/04/01 16:44:06;;;;;;;5.20;1.88;;;6.20;81.30;;;;;;5053850;28;20076;-40
2022/04/01 16:46:33;;;;;;;4.20;1.20;;;6.70;79.80;;;;;;5053665;28;20136;-43
2022/04/01 16:48:59;;;;;;;4.63;1.20;;;7.10;77.60;;;;;;5047223;28;20056;-41
2022/04/01 16:51:27;;;;;;;4.35;1.40;;;7.30;75.40;;;;;;5034434;28;20038;-41
2022/04/01 16:53:53;;;;;;;5.00;1.50;;;7.60;75.20;;;;;;5048020;28;20041;-45
2022/04/01 16:56:20;;;;;;;7.05;1.45;;;7.90;72.00;;;;;;5036653;28;20103;-42
2022/04/01 16:58:47;;;;;;;4.40;1.23;;;7.90;69.70;;;;;;5036611;28;20052;-40
2022/04/01 17:01:14;;;;;;;6.05;1.10;;;8.30;71.30;;;;;;5035882;28;20076;-39
2022/04/01 17:03:41;;;;;;;6.05;1.20;;;8.50;69.60;;;;;;5035962;28;20041;-40
2022/04/01 17:14:28;;;;;;;5.38;0.90;;;8.80;61.80;;;;;;5055220;28;20138;-41
2022/04/01 17:16:55;;;;;;;3.05;1.30;;;8.60;58.90;;;;;;5055175;28;20069;-39
2022/04/01 17:19:22;;;;;;;4.65;1.38;;;8.70;59.90;;;;;;5055051;28;20037;-39
2022/04/01 17:21:54;;;;;;;4.32;1.13;;;8.90;59.40;;;;;;5042076;28;20144;-39
2022/04/01 17:24:20;;;;;;;3.20;0.85;;;8.70;57.30;;;;;;5054999;28;20045;-44
2022/04/01 17:26:47;;;;;;;2.03;0.90;;;8.50;56.90;;;;;;5054960;28;20116;-38
2022/04/01 17:29:15;;;;;;;4.32;1.27;;;8.10;56.50;;;;;;5054894;28;20040;-40
2022/04/01 17:31:41;;;;;;;5.45;1.25;;;8.00;60.70;;;;;;5055026;28;20049;-42
2022/04/01 17:34:09;;;;;;;4.65;1.00;;;7.80;59.90;;;;;;5053557;28;20033;-40
2022/04/01 17:36:36;;;;;;;2.42;0.95;;;7.60;58.90;;;;;;5046642;28;20049;-41
2022/04/01 17:39:03;;;;;;;2.00;0.88;;;7.40;58.20;;;;;;5049325;28;20094;-41
2022/04/01 17:41:30;;;;;;;3.33;1.15;;;7.30;60.00;;;;;;5054613;28;20407;-41
2022/04/01 17:43:57;;;;;;;6.13;1.20;;;7.20;61.40;;;;;;5053815;28;20454;-42
2022/04/01 17:46:24;;;;;;;7.13;1.42;;;7.00;61.70;;;;;;5042024;28;20419;-41
2022/04/01 17:48:50;;;;;;;3.90;1.40;;;6.90;56.80;;;;;;5036398;28;20426;-42
2022/04/01 17:51:17;;;;;;;2.78;0.90;;;6.90;59.80;;;;;;5054305;28;20047;-40
2022/04/01 17:53:44;;;;;;;8.10;1.33;;;6.90;59.40;;;;;;5054450;28;20064;-40
2022/04/01 17:56:11;;;;;;;6.18;1.40;;;6.80;65.90;;;;;;5047434;28;20049;-41
2022/04/01 17:58:41;;;;;;;4.13;1.15;;;6.70;68.80;;;;;;5035461;28;20042;-40
2022/04/01 18:01:09;;;;;;;7.97;1.35;;;6.60;70.30;;;;;;5035217;28;20041;-40
2022/04/01 18:03:36;;;;;;;4.75;1.33;;;6.40;71.60;;;;;;5034778;28;20455;-42
2022/04/01 18:06:03;;;;;;;5.32;1.75;;;6.30;72.90;;;;;;5035347;28;20111;-41
2022/04/01 18:08:30;;;;;;;5.50;1.55;;;6.30;73.80;;;;;;5038889;28;20044;-41
2022/04/01 18:10:57;;;;;;;8.07;1.70;;;6.20;74.60;;;;;;5035292;28;20116;-40
2022/04/01 18:13:23;;;;;;;6.85;1.35;;;6.20;74.90;;;;;;5041991;28;20045;-40
2022/04/01 18:15:51;;;;;;;3.80;1.33;;;6.10;75.20;;;;;;5054070;28;20041;-42
2022/04/01 18:18:18;;;;;;;3.75;1.17;;;6.00;75.50;;;;;;5040481;28;20041;-40
2022/04/01 18:20:45;;;;;;;9.15;1.92;;;6.00;76.30;;;;;;5048233;28;20060;-42
2022/04/01 18:23:12;;;;;;;7.75;1.90;;;5.90;76.50;;;;;;5045756;28;20049;-41
2022/04/01 18:25:39;;;;;;;4.78;2.05;;;5.90;77.20;;;;;;5034850;28;20048;-40
2022/04/01 18:28:06;;;;;;;6.63;2.00;;;5.90;77.50;;;;;;5034834;28;20087;-41
2022/04/01 18:30:34;;;;;;;9.18;1.80;;;5.80;77.40;;;;;;5039521;28;20037;-44
2022/04/01 18:33:01;;;;;;;6.10;2.05;;;5.70;77.60;;;;;;5053843;28;20120;-41
2022/04/01 18:35:29;;;;;;;7.05;1.50;;;5.70;77.70;;;;;;5054072;28;20488;-39
2022/04/01 18:37:56;;;;;;;6.30;1.60;;;5.70;77.60;;;;;;5053829;28;20037;-39
2022/04/01 18:40:23;;;;;;;5.88;1.60;;;5.70;78.00;;;;;;5052412;28;20067;-39
2022/04/01 18:42:49;;;;;;;6.55;1.95;;;5.70;77.10;;;;;;5053537;28;20111;-40
2022/04/01 18:45:16;;;;;;;8.20;1.75;;;5.60;76.50;;;;;;5053425;28;20124;-39
2022/04/01 18:47:43;;;;;;;6.15;1.95;;;5.50;75.60;;;;;;5052486;28;20476;-39
2022/04/01 18:50:10;;;;;;;7.22;2.97;;;5.50;75.10;;;;;;5053383;28;20541;-39
2022/04/01 18:52:37;;;;;;;5.70;2.28;;;5.50;75.10;;;;;;5053437;28;20037;-41
2022/04/01 18:55:03;;;;;;;4.97;1.70;;;5.40;74.80;;;;;;5053266;28;20103;-46
2022/04/01 18:57:30;;;;;;;12.07;1.60;;;5.40;74.70;;;;;;5051692;28;20033;-40
2022/04/01 18:59:57;;;;;;;5.82;1.67;;;5.40;73.80;;;;;;5053138;28;20485;-46
2022/04/01 19:02:24;;;;;;;5.65;2.20;;;5.30;74.50;;;;;;5033634;28;20063;-43
2022/04/01 19:04:51;;;;;;;7.20;1.75;;;5.40;74.80;;;;;;5033450;28;20057;-42
2022/04/01 19:07:18;;;;;;;3.60;1.50;;;5.30;73.80;;;;;;5033676;28;20037;-40
2022/04/01 19:09:45;;;;;;;4.47;1.70;;;5.30;73.20;;;;;;5033544;28;20044;-44
2022/04/01 19:12:12;;;;;;;4.70;1.58;;;5.30;73.40;;;;;;5033579;28;20100;-41
2022/04/01 19:14:38;;;;;;;5.13;2.10;;;5.30;72.80;;;;;;5039849;28;20038;-43
2022/04/01 19:17:05;;;;;;;8.88;2.10;;;5.30;73.50;;;;;;5033663;28;20132;-44
2022/04/01 19:19:32;;;;;;;9.95;2.30;;;5.30;72.90;;;;;;5033389;28;20052;-41
2022/04/01 19:21:59;;;;;;;5.22;2.70;;;5.30;73.10;;;;;;5033461;28;20037;-39
2022/04/01 19:24:26;;;;;;;6.97;2.33;;;5.30;73.20;;;;;;5033251;28;20136;-39
2022/04/01 19:26:52;;;;;;;8.32;2.80;;;5.30;73.00;;;;;;5033142;28;20120;-39
2022/04/01 19:29:19;;;;;;;8.25;2.78;;;5.30;73.20;;;;;;5033646;28;20076;-39
2022/04/01 19:31:47;;;;;;;5.63;2.40;;;5.20;73.50;;;;;;5046598;28;20374;-40
2022/04/01 19:34:14;;;;;;;9.77;3.35;;;5.20;73.50;;;;;;5052645;28;20140;-41
2022/04/01 19:36:40;;;;;;;3.47;1.45;;;5.10;73.80;;;;;;5052697;28;20075;-40
2022/04/01 19:39:07;;;;;;;4.18;1.98;;;5.10;73.70;;;;;;5052606;28;20041;-40
2022/04/01 19:41:34;;;;;;;4.68;1.75;;;5.00;73.10;;;;;;5042798;28;20389;-45
2022/04/01 19:44:06;;;;;;;8.55;2.22;;;5.00;73.40;;;;;;5033542;28;20480;-39
2022/04/01 19:46:33;;;;;;;4.03;1.60;;;5.10;72.70;;;;;;5033372;28;20041;-39
2022/04/01 19:49:00;;;;;;;5.97;2.00;;;5.10;72.90;;;;;;5033415;28;20040;-41
2022/04/01 19:51:26;;;;;;;4.63;2.20;;;5.10;73.10;;;;;;5033213;28;20538;-39
2022/04/01 19:53:53;;;;;;;3.78;1.42;;;5.10;73.10;;;;;;5033229;28;20038;-38
2022/04/01 19:56:20;;;;;;;6.25;1.88;;;5.20;73.10;;;;;;5033214;28;20460;-41
2022/04/01 19:58:47;;;;;;;6.68;1.80;;;5.20;73.20;;;;;;5033134;28;20488;-40
2022/04/01 20:01:14;;;;;;;8.25;1.65;;;5.20;73.50;;;;;;5033104;28;20048;-40
2022/04/01 20:03:41;;;;;;;2.92;1.40;;;5.30;73.70;;;;;;5033011;28;20056;-40
2022/04/01 20:06:09;;;;;;;4.38;1.50;;;5.30;74.20;;;;;;5033026;28;20543;-39
2022/04/01 20:08:35;;;;;;;5.82;1.38;;;5.20;74.50;;;;;;5037983;28;20129;-39
2022/04/01 20:11:02;;;;;;;6.85;1.88;;;5.20;75.20;;;;;;5033026;28;20092;-42
2022/04/01 20:13:29;;;;;;;6.15;1.90;;;5.20;75.00;;;;;;5033099;28;20041;-39
2022/04/01 20:15:57;;;;;;;5.00;1.27;;;5.20;75.60;;;;;;5033073;28;20123;-39
2022/04/01 20:18:24;;;;;;;5.10;1.77;;;5.10;75.60;;;;;;5033026;28;20131;-40
2022/04/01 20:20:50;;;;;;;8.00;1.80;;;5.10;75.90;;;;;;5031742;28;20045;-39
2022/04/01 20:23:18;;;;;;;5.90;1.63;;;5.10;76.30;;;;;;5032847;28;20420;-44
2022/04/01 20:25:50;;;;;;;4.43;1.45;;;5.10;76.60;;;;;;5042342;28;20085;-39
2022/04/01 20:28:17;;;;;;;3.92;1.25;;;5.00;76.90;;;;;;5052026;28;20076;-41
2022/04/01 20:30:44;;;;;;;6.32;1.70;;;5.00;77.30;;;;;;5052023;28;20037;-40
2022/04/01 20:33:12;;;;;;;3.58;1.52;;;5.00;77.80;;;;;;5048798;28;20033;-40
2022/04/01 20:35:39;;;;;;;5.93;1.20;;;4.90;78.30;;;;;;5032795;28;20116;-38
2022/04/01 20:38:08;;;;;;;6.35;1.30;;;4.80;78.50;;;;;;5032616;28;20042;-41
2022/04/01 20:40:35;;;;;;;2.95;1.10;;;4.80;78.90;;;;;;5032777;28;20038;-40
2022/04/01 20:43:02;;;;;;;2.75;1.30;;;4.70;79.30;;;;;;5032675;28;20045;-40
2022/04/01 20:45:29;;;;;;;4.32;1.35;;;4.70;79.70;;;;;;5033010;28;20133;-39
2022/04/01 20:47:55;;;;;;;4.82;1.50;;;4.70;80.20;;;;;;5037730;28;20037;-39
2022/04/01 20:50:23;;;;;;;5.70;1.92;;;4.60;80.70;;;;;;5051538;28;20045;-41
2022/04/01 20:52:50;;;;;;;5.20;1.63;;;4.60;80.90;;;;;;5050564;28;20049;-41
2022/04/01 20:55:17;;;;;;;5.07;1.88;;;4.50;81.30;;;;;;5050361;28;20150;-43
2022/04/01 20:57:43;;;;;;;3.50;1.30;;;4.50;81.80;;;;;;5047113;28;20045;-40
2022/04/01 21:00:10;;;;;;;7.32;1.90;;;4.40;82.30;;;;;;5051830;28;20396;-40
2022/04/01 21:02:39;;;;;;;6.43;2.03;;;4.40;82.80;;;;;;5037099;28;20038;-40
2022/04/01 21:05:06;;;;;;;7.25;1.55;;;4.40;83.00;;;;;;5032327;28;20054;-40
2022/04/01 21:07:35;;;;;;;8.02;1.80;;;4.30;83.50;;;;;;5032143;28;20475;-39
2022/04/01 21:10:04;;;;;;;6.32;1.60;;;4.30;83.80;;;;;;5050168;28;20037;-39
2022/04/01 21:12:31;;;;;;;7.95;2.45;;;4.30;84.30;;;;;;5054172;28;20041;-40
2022/04/01 21:14:58;;;;;;;6.07;1.80;;;4.30;84.50;;;;;;5054035;28;20484;-46